Time;durP1;ratioP1;P1;durP2;ratioP2;P2;SDS_P1;SDS_P2;PMS_P1;PMS_P2;Temp;Humidity;BMP_temperature;BMP_pressure;BME280_temperature;BME280_humidity;BME280_pressure;Samples;Min_cycle;Max_cycle;Signal;HPM_P1;HPM_P2
2023/09/15 00:00:24;;;;;;;2.72;2.03;;;;;;;14.28;100.00;100529.00;4983922;28;20034;-68
2023/09/15 00:02:52;;;;;;;4.63;2.30;;;;;;;14.24;100.00;100528.81;4986468;28;20557;-68
2023/09/15 00:05:18;;;;;;;3.17;1.85;;;;;;;14.19;100.00;100528.13;4983537;28;20109;-68
2023/09/15 00:07:44;;;;;;;4.15;2.30;;;;;;;14.16;100.00;100526.78;4983661;28;20576;-68
2023/09/15 00:10:12;;;;;;;4.93;2.63;;;;;;;14.15;100.00;100527.06;4983304;28;20038;-68
2023/09/15 00:12:42;;;;;;;4.75;2.20;;;;;;;14.12;100.00;100524.94;4983878;28;20475;-68
2023/09/15 00:15:08;;;;;;;4.40;2.30;;;;;;;14.10;100.00;100525.25;4971365;28;20487;-68
2023/09/15 00:17:41;;;;;;;3.80;2.30;;;;;;;14.05;100.00;100515.03;4977511;28;20026;-68
2023/09/15 00:20:13;;;;;;;4.75;2.22;;;;;;;14.03;100.00;100517.31;4983015;28;20035;-68
2023/09/15 00:22:40;;;;;;;4.80;2.42;;;;;;;13.96;100.00;100516.94;4984084;28;20030;-68
2023/09/15 00:25:05;;;;;;;3.65;2.10;;;;;;;13.92;100.00;100510.31;4999523;28;20050;-68
2023/09/15 00:27:31;;;;;;;3.20;2.38;;;;;;;13.91;100.00;100507.88;4999626;28;20434;-68
2023/09/15 00:29:56;;;;;;;2.97;2.40;;;;;;;13.87;100.00;100502.06;4983346;28;20426;-68
2023/09/15 00:32:22;;;;;;;2.83;2.47;;;;;;;13.87;100.00;100502.06;4999520;28;20041;-68
2023/09/15 00:34:47;;;;;;;5.32;2.40;;;;;;;13.82;100.00;100502.22;4982503;28;20030;-68
2023/09/15 00:37:13;;;;;;;5.28;2.20;;;;;;;13.78;100.00;100503.97;4983019;28;20037;-68
2023/09/15 00:39:38;;;;;;;3.03;2.17;;;;;;;13.74;100.00;100498.22;4999238;28;20029;-68
2023/09/15 00:42:04;;;;;;;3.65;2.33;;;;;;;13.74;100.00;100494.59;4967108;28;20039;-68
2023/09/15 00:44:29;;;;;;;3.70;2.08;;;;;;;13.74;100.00;100497.38;4982819;28;20455;-68
2023/09/15 00:46:55;;;;;;;4.88;2.70;;;;;;;13.74;100.00;100494.59;4999053;28;20034;-68
2023/09/15 00:49:20;;;;;;;5.75;2.60;;;;;;;13.71;100.00;100486.84;4982597;28;20056;-68
2023/09/15 00:51:48;;;;;;;7.70;2.70;;;;;;;13.67;100.00;100485.81;4967158;28;20030;-68
2023/09/15 00:54:13;;;;;;;6.90;2.72;;;;;;;13.64;100.00;100493.69;4982857;28;20410;-68
2023/09/15 00:56:39;;;;;;;3.42;2.38;;;;;;;13.62;100.00;100482.03;4979555;28;20030;-68
2023/09/15 00:59:05;;;;;;;4.78;2.78;;;;;;;13.60;100.00;100484.31;4995009;28;20038;-67
2023/09/15 01:01:31;;;;;;;3.78;2.42;;;;;;;13.55;100.00;100480.81;4982661;28;20509;-68
2023/09/15 01:03:56;;;;;;;4.93;2.50;;;;;;;13.55;100.00;100476.03;4966121;28;20030;-68
2023/09/15 01:06:22;;;;;;;4.25;2.40;;;;;;;13.52;100.00;100471.09;4982455;28;20034;-68
2023/09/15 01:08:48;;;;;;;5.88;2.22;;;;;;;13.48;100.00;100470.06;4982345;28;20038;-68
2023/09/15 01:11:13;;;;;;;3.22;2.30;;;;;;;13.47;100.00;100470.38;4982137;28;20058;-68
2023/09/15 01:13:39;;;;;;;4.40;2.72;;;;;;;13.49;100.00;100456.97;4982297;28;20027;-68
2023/09/15 01:16:34;;;;;;;4.40;2.67;;;;;;;13.46;100.00;100458.41;4966270;28;20454;-68
2023/09/15 01:19:39;;;;;;;5.57;2.55;;;;;;;13.43;100.00;100460.97;4982976;28;20030;-68
2023/09/15 01:22:08;;;;;;;4.45;2.35;;;;;;;13.41;100.00;100455.72;4969813;28;20054;-68
2023/09/15 01:25:01;;;;;;;5.68;2.63;;;;;;;13.36;100.00;100455.84;4997769;28;20065;-68
2023/09/15 01:27:39;;;;;;;4.57;2.28;;;;;;;13.36;100.00;100450.28;4986922;28;20030;-68
2023/09/15 01:30:05;;;;;;;3.63;2.50;;;;;;;13.36;100.00;100451.09;4998452;28;20390;-68
2023/09/15 01:32:33;;;;;;;3.95;2.78;;;;;;;13.33;100.00;100445.31;4972426;28;20027;-68
2023/09/15 01:35:04;;;;;;;3.22;2.38;;;;;;;13.33;100.00;100448.09;4979112;28;20037;-68
2023/09/15 01:37:30;;;;;;;4.43;2.42;;;;;;;13.27;100.00;100443.78;4982547;28;20038;-68
2023/09/15 01:39:55;;;;;;;3.47;2.40;;;;;;;13.26;100.00;100447.69;4998233;28;20030;-68
2023/09/15 01:42:21;;;;;;;4.15;2.50;;;;;;;13.21;100.00;100445.03;4965710;28;20056;-68
2023/09/15 01:44:46;;;;;;;4.68;2.55;;;;;;;13.22;100.00;100441.09;4981811;28;20102;-68
2023/09/15 01:47:16;;;;;;;4.78;2.50;;;;;;;13.18;100.00;100436.13;4981161;28;20414;-68
2023/09/15 01:49:42;;;;;;;3.72;2.72;;;;;;;13.19;100.00;100431.38;4982098;28;20034;-68
2023/09/15 01:52:07;;;;;;;4.93;2.55;;;;;;;13.16;100.00;100430.03;4981759;28;20038;-68
2023/09/15 01:54:34;;;;;;;3.90;2.42;;;;;;;13.13;100.00;100432.63;4981532;28;20026;-67
2023/09/15 01:57:01;;;;;;;4.38;2.65;;;;;;;13.11;100.00;100435.72;4981765;28;20026;-68
2023/09/15 01:59:27;;;;;;;4.28;2.53;;;;;;;13.09;100.00;100440.81;4981784;28;20044;-68
2023/09/15 02:01:53;;;;;;;4.05;2.60;;;;;;;13.09;100.00;100443.59;4982047;28;20412;-68
2023/09/15 02:04:21;;;;;;;4.63;2.63;;;;;;;13.06;100.00;100443.38;4981281;28;20146;-68
2023/09/15 02:06:47;;;;;;;3.42;2.50;;;;;;;13.08;100.00;100439.16;4999052;28;20041;-68
2023/09/15 02:09:15;;;;;;;4.68;2.42;;;;;;;13.11;100.00;100440.47;4965099;28;20030;-68
2023/09/15 02:11:41;;;;;;;3.72;2.67;;;;;;;13.08;100.00;100429.97;4981143;28;20074;-68
2023/09/15 02:14:06;;;;;;;4.40;2.42;;;;;;;13.04;100.00;100429.78;4977952;28;20035;-68
2023/09/15 02:16:32;;;;;;;2.90;2.40;;;;;;;13.01;100.00;100424.81;4981453;28;20064;-68
2023/09/15 02:18:57;;;;;;;4.88;2.40;;;;;;;13.04;100.00;100424.19;4980756;28;20027;-68
2023/09/15 02:21:23;;;;;;;3.40;2.47;;;;;;;13.00;100.00;100427.91;4998719;28;20034;-68
2023/09/15 02:23:48;;;;;;;3.88;2.50;;;;;;;13.02;100.00;100420.88;4980704;28;20426;-68
2023/09/15 02:26:14;;;;;;;3.75;2.30;;;;;;;13.01;100.00;100432.34;4981265;28;20108;-68
2023/09/15 02:28:39;;;;;;;3.92;2.65;;;;;;;12.97;100.00;100426.56;4997284;28;20030;-68
2023/09/15 02:31:05;;;;;;;4.45;2.50;;;;;;;13.01;100.00;100430.41;4981093;28;20053;-68
2023/09/15 02:33:31;;;;;;;3.30;2.60;;;;;;;12.96;100.00;100436.06;4980817;28;20505;-68
2023/09/15 02:35:57;;;;;;;3.83;2.63;;;;;;;13.00;100.00;100425.94;4997231;28;20080;-68
2023/09/15 02:38:22;;;;;;;4.90;2.47;;;;;;;12.93;100.00;100419.97;4980875;28;20052;-68
2023/09/15 02:40:48;;;;;;;3.03;2.38;;;;;;;12.95;100.00;100415.75;4997291;28;20422;-68
2023/09/15 02:43:13;;;;;;;4.03;2.42;;;;;;;12.92;100.00;100419.13;4997035;28;20030;-68
2023/09/15 02:45:39;;;;;;;3.47;2.35;;;;;;;12.93;100.00;100423.59;4979669;28;20030;-68
2023/09/15 02:48:04;;;;;;;5.22;2.95;;;;;;;12.88;100.00;100414.50;4980364;28;20509;-68
2023/09/15 02:50:30;;;;;;;4.15;2.53;;;;;;;12.87;100.00;100410.06;4977277;28;20493;-68
2023/09/15 02:52:56;;;;;;;4.93;2.60;;;;;;;12.86;100.00;100405.63;4995877;28;20031;-68
2023/09/15 02:55:21;;;;;;;6.40;3.00;;;;;;;12.85;100.00;100402.03;4964471;28;20030;-68
2023/09/15 02:57:54;;;;;;;3.35;2.47;;;;;;;12.83;100.00;100395.09;4980732;28;20035;-68
2023/09/15 03:00:20;;;;;;;4.22;2.72;;;;;;;12.80;100.00;100393.78;4980747;28;20030;-68
2023/09/15 03:02:48;;;;;;;4.68;2.70;;;;;;;12.79;100.00;100388.50;4983951;28;20081;-68
2023/09/15 03:05:14;;;;;;;4.10;2.60;;;;;;;12.79;100.00;100392.13;4980330;28;20029;-68
2023/09/15 03:07:40;;;;;;;6.03;2.80;;;;;;;12.80;100.00;100390.97;4980306;28;20027;-68
2023/09/15 03:10:09;;;;;;;4.90;2.90;;;;;;;12.80;100.00;100390.16;4964232;28;20045;-68
2023/09/15 03:12:35;;;;;;;4.00;2.70;;;;;;;12.74;100.00;100384.69;4980214;28;20034;-68
2023/09/15 03:15:06;;;;;;;3.53;3.00;;;;;;;12.72;100.00;100384.16;4996523;28;20035;-68
2023/09/15 03:17:35;;;;;;;4.75;2.70;;;;;;;12.71;100.00;100381.72;4980340;28;20034;-68
2023/09/15 03:20:09;;;;;;;4.72;3.05;;;;;;;12.72;100.00;100384.16;4995774;28;20057;-68
2023/09/15 03:22:35;;;;;;;5.45;3.17;;;;;;;12.68;100.00;100380.38;4981253;28;20034;-68
2023/09/15 03:25:00;;;;;;;4.90;2.70;;;;;;;12.69;100.00;100383.97;4980147;28;20026;-68
2023/09/15 03:27:26;;;;;;;4.30;3.00;;;;;;;12.67;100.00;100383.47;4997794;28;20510;-68
2023/09/15 03:29:51;;;;;;;5.38;3.00;;;;;;;12.62;100.00;100375.19;4980249;28;20088;-68
2023/09/15 03:32:16;;;;;;;5.55;3.25;;;;;;;12.60;100.00;100383.06;4997738;28;20041;-68
2023/09/15 03:34:42;;;;;;;7.85;3.13;;;;;;;12.54;100.00;100379.56;4997398;28;20471;-68
2023/09/15 03:37:07;;;;;;;4.03;2.53;;;;;;;12.56;100.00;100374.47;4980171;28;20060;-68
2023/09/15 03:39:33;;;;;;;5.38;2.65;;;;;;;12.57;100.00;100367.78;4997661;28;20037;-68
2023/09/15 03:41:58;;;;;;;5.60;2.83;;;;;;;12.50;100.00;100364.59;4996579;28;20033;-68
2023/09/15 03:44:25;;;;;;;3.28;2.50;;;;;;;12.52;100.00;100365.94;4996045;28;20080;-67
2023/09/15 03:46:50;;;;;;;7.57;3.35;;;;;;;12.50;100.00;100353.44;4997629;28;20479;-68
2023/09/15 03:49:16;;;;;;;5.38;2.85;;;;;;;12.47;100.00;100357.69;4979931;28;20104;-68
2023/09/15 03:51:41;;;;;;;4.47;2.60;;;;;;;12.48;100.00;100345.41;4996385;28;20097;-68
2023/09/15 03:54:07;;;;;;;3.35;2.50;;;;;;;12.47;100.00;100338.19;4979999;28;20034;-68
2023/09/15 03:56:32;;;;;;;3.83;2.83;;;;;;;12.43;100.00;100333.56;4980112;28;20516;-68
2023/09/15 03:58:58;;;;;;;2.65;2.38;;;;;;;12.43;100.00;100328.00;4996151;28;20035;-68
2023/09/15 04:01:25;;;;;;;3.92;2.30;;;;;;;12.40;100.00;100323.03;4964114;28;20081;-68
2023/09/15 04:03:50;;;;;;;3.20;2.30;;;;;;;12.40;100.00;100325.84;4997156;28;20114;-68
2023/09/15 04:06:16;;;;;;;4.00;2.65;;;;;;;12.35;100.00;100320.38;4980117;28;20038;-68
2023/09/15 04:08:42;;;;;;;3.22;2.20;;;;;;;12.37;100.00;100327.28;4997546;28;20041;-68
2023/09/15 04:11:07;;;;;;;3.47;2.40;;;;;;;12.33;100.00;100315.09;4999464;28;20058;-68
2023/09/15 04:13:33;;;;;;;4.68;2.65;;;;;;;12.33;100.00;100320.66;5000940;28;20030;-68
2023/09/15 04:16:00;;;;;;;3.22;2.40;;;;;;;12.35;100.00;100318.41;4983622;28;20038;-68
2023/09/15 04:18:29;;;;;;;2.53;2.10;;;;;;;12.31;100.00;100317.34;4983627;28;20494;-68
2023/09/15 04:20:54;;;;;;;3.67;2.67;;;;;;;12.23;100.00;100318.94;4999331;28;20031;-68
2023/09/15 04:23:20;;;;;;;4.13;2.50;;;;;;;12.26;100.00;100309.13;4999407;28;20038;-68
2023/09/15 04:25:45;;;;;;;3.40;2.30;;;;;;;12.24;100.00;100306.66;4983669;28;20367;-68
2023/09/15 04:28:12;;;;;;;2.88;2.20;;;;;;;12.23;100.00;100299.44;4983335;28;20053;-68
2023/09/15 04:30:37;;;;;;;3.80;2.40;;;;;;;12.22;100.00;100303.34;4983443;28;20038;-68
2023/09/15 04:33:03;;;;;;;4.50;2.45;;;;;;;12.23;100.00;100295.81;4983035;28;20031;-68
2023/09/15 04:35:28;;;;;;;4.40;2.55;;;;;;;12.23;100.00;100293.88;4999247;28;20491;-68
2023/09/15 04:37:54;;;;;;;4.18;2.40;;;;;;;12.22;100.00;100300.56;4982966;28;20030;-68
2023/09/15 04:40:20;;;;;;;5.30;2.63;;;;;;;12.22;100.00;100299.72;4999466;28;20057;-68
2023/09/15 04:42:45;;;;;;;4.95;2.45;;;;;;;12.23;100.00;100296.66;4983098;28;20062;-68
2023/09/15 04:45:11;;;;;;;3.85;2.63;;;;;;;12.20;100.00;100299.22;4982928;28;20026;-68
2023/09/15 04:47:37;;;;;;;4.38;2.47;;;;;;;12.21;100.00;100296.13;4997305;28;20026;-68
2023/09/15 04:50:02;;;;;;;4.18;3.03;;;;;;;12.20;100.00;100294.50;4982852;28;20434;-68
2023/09/15 04:52:28;;;;;;;3.75;2.28;;;;;;;12.23;100.00;100288.31;4982888;28;20038;-68
2023/09/15 04:54:54;;;;;;;3.70;2.75;;;;;;;12.19;100.00;100287.25;4999109;28;20035;-68
2023/09/15 04:57:20;;;;;;;3.92;3.00;;;;;;;12.20;100.00;100293.66;4998976;28;20525;-67
2023/09/15 04:59:47;;;;;;;4.60;2.88;;;;;;;12.24;100.00;100291.91;4999058;28;20038;-68
2023/09/15 05:02:13;;;;;;;5.30;3.00;;;;;;;12.24;100.00;100289.13;4998951;28;20471;-68
2023/09/15 05:04:39;;;;;;;3.95;2.58;;;;;;;12.22;100.00;100291.38;4982867;28;20026;-68
2023/09/15 05:07:05;;;;;;;5.50;2.58;;;;;;;12.20;100.00;100288.94;4982557;28;20042;-68
2023/09/15 05:09:30;;;;;;;4.50;2.55;;;;;;;12.22;100.00;100281.06;4982410;28;20046;-68
2023/09/15 05:11:55;;;;;;;4.00;2.53;;;;;;;12.23;100.00;100277.16;4998473;28;20058;-68
2023/09/15 05:14:22;;;;;;;3.47;2.55;;;;;;;12.20;100.00;100288.06;4982304;28;20428;-68
2023/09/15 05:16:48;;;;;;;3.63;2.50;;;;;;;12.22;100.00;100281.06;4995362;28;20114;-68
2023/09/15 05:19:13;;;;;;;4.85;2.80;;;;;;;12.25;100.00;100285.19;4978606;28;20042;-68
2023/09/15 05:21:39;;;;;;;4.80;2.90;;;;;;;12.26;100.00;100290.47;4997022;28;20022;-68
2023/09/15 05:24:05;;;;;;;6.43;2.80;;;;;;;12.32;100.00;100287.56;4965731;28;20073;-68
2023/09/15 05:26:30;;;;;;;4.85;2.72;;;;;;;12.32;100.00;100284.78;4998385;28;20037;-68
2023/09/15 05:28:56;;;;;;;4.03;3.05;;;;;;;12.34;100.00;100288.06;4999540;28;20057;-68
2023/09/15 05:31:25;;;;;;;4.85;3.20;;;;;;;12.35;100.00;100292.50;4981858;28;20037;-68
2023/09/15 05:33:53;;;;;;;5.30;3.35;;;;;;;12.38;100.00;100291.88;4982815;28;20399;-68
2023/09/15 05:36:18;;;;;;;6.22;3.60;;;;;;;12.45;100.00;100297.84;4982004;28;20026;-68
2023/09/15 05:38:44;;;;;;;6.63;3.10;;;;;;;12.45;100.00;100301.47;4997951;28;20045;-68
2023/09/15 05:41:09;;;;;;;5.47;3.20;;;;;;;12.51;100.00;100299.41;4965692;28;20431;-67
2023/09/15 05:43:34;;;;;;;4.90;3.15;;;;;;;12.52;100.00;100295.47;4998395;28;20034;-68
2023/09/15 05:46:00;;;;;;;5.82;3.45;;;;;;;12.53;100.00;100302.69;4998048;28;20361;-67
2023/09/15 05:48:27;;;;;;;4.78;3.45;;;;;;;12.59;100.00;100312.59;4965732;28;20050;-68
2023/09/15 05:50:52;;;;;;;5.20;3.53;;;;;;;12.62;100.00;100313.91;4997962;28;20045;-68
2023/09/15 05:53:18;;;;;;;4.65;3.40;;;;;;;12.64;100.00;100308.84;4981838;28;20031;-68
2023/09/15 05:55:43;;;;;;;6.15;3.47;;;;;;;12.68;100.00;100310.72;4965608;28;20030;-68
2023/09/15 05:58:08;;;;;;;4.90;3.33;;;;;;;12.76;100.00;100309.16;4999236;28;20064;-68
2023/09/15 06:00:34;;;;;;;5.85;3.47;;;;;;;12.79;100.00;100304.88;4964007;28;20042;-68
2023/09/15 06:02:59;;;;;;;9.40;3.67;;;;;;;12.85;100.00;100309.22;4965361;28;20050;-67
2023/09/15 06:05:25;;;;;;;7.00;3.75;;;;;;;12.86;100.00;100310.88;4997337;28;20026;-68
2023/09/15 06:07:54;;;;;;;7.32;3.80;;;;;;;12.91;100.00;100313.53;4981169;28;20398;-68
2023/09/15 06:10:20;;;;;;;7.30;3.38;;;;;;;12.92;100.00;100304.84;4980856;28;20035;-67
2023/09/15 06:12:48;;;;;;;6.45;4.13;;;;;;;12.97;100.00;100301.94;4981358;28;20042;-68
2023/09/15 06:15:13;;;;;;;7.78;3.90;;;;;;;13.01;100.00;100298.53;4997480;28;20038;-68
2023/09/15 06:17:39;;;;;;;8.50;3.75;;;;;;;13.07;100.00;100295.31;4997603;28;20085;-68
2023/09/15 06:20:05;;;;;;;5.82;4.07;;;;;;;13.12;100.00;100297.13;4997080;28;20045;-68
2023/09/15 06:22:30;;;;;;;7.28;4.00;;;;;;;13.14;100.00;100290.09;4997459;28;20034;-67
2023/09/15 06:24:56;;;;;;;8.55;3.75;;;;;;;13.23;100.00;100297.72;4981116;28;20447;-68
2023/09/15 06:27:21;;;;;;;9.20;3.92;;;;;;;13.25;100.00;100301.84;4981218;28;20041;-68
2023/09/15 06:29:47;;;;;;;6.85;4.07;;;;;;;13.30;100.00;100290.59;4981037;28;20038;-68
2023/09/15 06:32:12;;;;;;;5.47;3.90;;;;;;;13.36;100.00;100294.06;4980845;28;20029;-67
2023/09/15 06:34:38;;;;;;;6.93;4.25;;;;;;;13.39;100.00;100285.88;4980950;28;20157;-68
2023/09/15 06:37:04;;;;;;;5.70;3.60;;;;;;;13.46;100.00;100296.59;4984183;28;20101;-67
2023/09/15 06:39:30;;;;;;;8.60;4.68;;;;;;;13.52;100.00;100286.13;4964920;28;20504;-68
2023/09/15 06:41:55;;;;;;;9.00;4.43;;;;;;;13.59;100.00;100290.09;4997326;28;20498;-68
2023/09/15 06:44:20;;;;;;;6.68;4.00;;;;;;;13.68;100.00;100292.13;4997187;28;20031;-68
2023/09/15 06:46:46;;;;;;;6.50;3.90;;;;;;;13.75;100.00;100293.31;4980723;28;20041;-68
2023/09/15 06:49:12;;;;;;;7.97;4.22;;;;;;;13.82;100.00;100292.88;4980860;28;20109;-68
2023/09/15 06:51:38;;;;;;;6.55;3.90;;;;;;;13.89;100.00;100279.25;4977549;28;20039;-68
2023/09/15 06:54:03;;;;;;;6.32;4.32;;;;;;;13.95;100.00;100277.97;4980736;28;20037;-68
2023/09/15 06:56:29;;;;;;;7.07;4.25;;;;;;;14.05;100.00;100277.69;4998002;28;20034;-68
2023/09/15 06:58:54;;;;;;;9.40;4.63;;;;;;;14.16;100.00;100272.63;4980606;28;20027;-68
2023/09/15 07:01:20;;;;;;;4.97;3.78;;;;;;;14.29;100.00;100279.22;4980714;28;20026;-68
2023/09/15 07:03:45;;;;;;;7.03;3.78;;;;;;;14.44;100.00;100275.97;4980494;28;20045;-68
2023/09/15 07:06:13;;;;;;;6.90;3.63;;;;;;;14.59;100.00;100280.31;4996917;28;20037;-68
2023/09/15 07:08:39;;;;;;;6.85;3.92;;;;;;;14.74;100.00;100273.44;4996749;28;20030;-68
2023/09/15 07:11:04;;;;;;;6.78;3.88;;;;;;;14.89;100.00;100270.13;4980104;28;20102;-68
2023/09/15 07:13:30;;;;;;;6.40;4.10;;;;;;;15.03;100.00;100263.56;4980643;28;20031;-68
2023/09/15 07:15:55;;;;;;;6.25;3.72;;;;;;;15.17;100.00;100258.59;4996680;28;20042;-68
2023/09/15 07:18:21;;;;;;;8.63;5.25;;;;;;;15.30;100.00;100256.78;4996239;28;20489;-68
2023/09/15 07:20:46;;;;;;;7.32;4.03;;;;;;;15.44;100.00;100251.00;4980055;28;20089;-68
2023/09/15 07:23:12;;;;;;;8.63;3.60;;;;;;;15.59;100.00;100250.44;4996312;28;20030;-68
2023/09/15 07:25:38;;;;;;;8.27;4.15;;;;;;;15.73;100.00;100248.28;4978496;28;20026;-68
2023/09/15 07:28:04;;;;;;;8.73;4.78;;;;;;;15.90;100.00;100253.00;4980352;28;20034;-68
2023/09/15 07:30:30;;;;;;;6.32;4.40;;;;;;;16.05;100.00;100257.22;4951231;28;20030;-68
2023/09/15 07:32:56;;;;;;;6.78;4.10;;;;;;;16.19;100.00;100251.38;4996569;28;20035;-68
2023/09/15 07:35:22;;;;;;;10.07;4.45;;;;;;;16.37;100.00;100249.28;4979845;28;20030;-68
2023/09/15 07:37:48;;;;;;;7.07;4.35;;;;;;;16.53;100.00;100242.75;4980255;28;20038;-68
2023/09/15 07:40:13;;;;;;;6.13;3.90;;;;;;;16.70;100.00;100258.59;4996377;28;20034;-68
2023/09/15 07:42:39;;;;;;;7.78;4.55;;;;;;;16.87;100.00;100252.06;4974857;28;20030;-68
2023/09/15 07:45:05;;;;;;;12.07;4.43;;;;;;;17.03;100.00;100260.69;4982431;28;20027;-68
2023/09/15 07:47:31;;;;;;;7.22;4.15;;;;;;;17.20;100.00;100254.91;4984120;28;20030;-68
2023/09/15 07:49:57;;;;;;;7.35;3.95;;;;;;;17.36;100.00;100248.66;5000149;28;20034;-68
2023/09/15 07:52:24;;;;;;;8.32;4.07;;;;;;;17.56;100.00;100261.81;4984003;28;20030;-68
2023/09/15 07:54:50;;;;;;;7.18;4.05;;;;;;;17.72;100.00;100247.09;4984260;28;20034;-68
2023/09/15 07:57:15;;;;;;;6.43;3.72;;;;;;;17.88;100.00;100248.06;5000193;28;20184;-69
2023/09/15 07:59:41;;;;;;;7.95;4.70;;;;;;;18.04;100.00;100254.66;5000200;28;20055;-68
2023/09/15 08:02:06;;;;;;;7.70;4.55;;;;;;;18.21;100.00;100247.16;4998100;28;20564;-68
2023/09/15 08:04:32;;;;;;;9.57;3.83;;;;;;;18.39;100.00;100250.56;4998608;28;20018;-68
2023/09/15 08:06:58;;;;;;;5.13;4.03;;;;;;;18.59;100.00;100243.13;4967556;28;20038;-68
2023/09/15 08:09:23;;;;;;;5.85;3.40;;;;;;;18.76;100.00;100234.44;4999531;28;20355;-68
2023/09/15 08:11:49;;;;;;;4.60;2.75;;;;;;;18.94;100.00;100241.44;4974700;28;20065;-68
2023/09/15 08:14:14;;;;;;;4.57;3.17;;;;;;;19.10;100.00;100235.03;4983505;28;20549;-68
2023/09/15 08:16:39;;;;;;;5.30;3.13;;;;;;;19.28;100.00;100230.72;4973215;28;20022;-68
2023/09/15 08:19:05;;;;;;;5.55;3.03;;;;;;;19.45;100.00;100225.94;4999553;28;20038;-69
2023/09/15 08:21:30;;;;;;;7.25;3.20;;;;;;;19.62;100.00;100231.22;4983285;28;20077;-68
2023/09/15 08:23:56;;;;;;;5.18;3.42;;;;;;;19.77;100.00;100221.16;4983283;28;20386;-68
2023/09/15 08:26:22;;;;;;;5.30;3.10;;;;;;;19.92;100.00;100222.34;4967365;28;20061;-68
2023/09/15 08:28:47;;;;;;;7.18;3.58;;;;;;;20.03;100.00;100221.44;4999505;28;20031;-68
2023/09/15 08:31:13;;;;;;;5.32;2.80;;;;;;;20.15;100.00;100214.88;4999699;28;20380;-68
2023/09/15 08:33:38;;;;;;;8.18;3.58;;;;;;;20.31;100.00;100218.50;4966794;28;20030;-68
2023/09/15 08:36:04;;;;;;;6.80;2.58;;;;;;;20.46;100.00;100216.00;4999541;28;20038;-68
2023/09/15 08:38:31;;;;;;;5.75;3.20;;;;;;;20.61;100.00;100214.34;4999108;28;20030;-68
2023/09/15 08:41:04;;;;;;;5.68;2.70;;;;;;;20.75;100.00;100212.66;4999554;28;20096;-68
2023/09/15 08:43:29;;;;;;;4.97;3.35;;;;;;;20.86;100.00;100201.56;4983467;28;20030;-68
2023/09/15 08:45:55;;;;;;;7.38;3.20;;;;;;;20.98;100.00;100201.44;4999246;28;20027;-68
2023/09/15 08:48:24;;;;;;;4.95;3.10;;;;;;;21.15;100.00;100200.16;4982888;28;20102;-68
2023/09/15 08:50:51;;;;;;;6.20;3.47;;;;;;;21.26;100.00;100206.03;4966662;28;20064;-68
2023/09/15 08:53:17;;;;;;;5.90;2.88;;;;;;;21.38;100.00;100197.41;4983142;28;20038;-68
2023/09/15 08:55:42;;;;;;;3.83;2.90;;;;;;;21.52;100.00;100199.66;4982696;28;20106;-68
2023/09/15 08:58:08;;;;;;;5.97;3.42;;;;;;;21.63;100.00;100200.69;4999006;28;20027;-68
2023/09/15 09:00:34;;;;;;;7.88;3.45;;;;;;;21.74;100.00;100198.03;4999003;28;20483;-68
2023/09/15 09:03:04;;;;;;;10.68;3.17;;;;;;;21.85;100.00;100198.22;4982943;28;20131;-68
2023/09/15 09:05:29;;;;;;;5.72;2.63;;;;;;;22.01;100.00;100198.91;4967471;28;20049;-68
2023/09/15 09:07:55;;;;;;;7.28;2.90;;;;;;;22.11;100.00;100193.78;4982521;28;20042;-68
2023/09/15 09:10:21;;;;;;;7.82;2.95;;;;;;;22.22;100.00;100194.78;4982079;28;20050;-68
2023/09/15 09:12:46;;;;;;;4.90;2.50;;;;;;;22.35;100.00;100198.22;4998081;28;20037;-69
2023/09/15 09:15:12;;;;;;;6.50;2.60;;;;;;;22.44;100.00;100193.91;4998589;28;20027;-68
2023/09/15 09:17:40;;;;;;;6.30;2.70;;;;;;;22.60;100.00;100195.75;4966438;28;20482;-68
2023/09/15 09:20:06;;;;;;;4.43;2.28;;;;;;;22.68;100.00;100191.81;4982049;28;20066;-68
2023/09/15 09:22:32;;;;;;;6.35;2.72;;;;;;;22.79;100.00;100189.94;4982400;28;20035;-68
2023/09/15 09:24:59;;;;;;;5.82;2.63;;;;;;;22.91;100.00;100188.88;4982243;28;20033;-68
2023/09/15 09:27:34;;;;;;;4.82;2.60;;;;;;;22.96;100.00;100171.56;4998408;28;20050;-68
2023/09/15 09:29:59;;;;;;;5.35;2.45;;;;;;;23.07;100.00;100180.19;4982286;28;20030;-68
2023/09/15 09:32:25;;;;;;;4.80;2.72;;;;;;;23.15;100.00;100177.06;4982358;28;20030;-68
2023/09/15 09:34:50;;;;;;;7.25;2.45;;;;;;;23.24;100.00;100179.56;4981842;28;20088;-68
2023/09/15 09:37:17;;;;;;;7.10;2.47;;;;;;;23.34;100.00;100175.22;4998254;28;20030;-68
2023/09/15 09:39:44;;;;;;;4.82;1.92;;;;;;;23.47;100.00;100176.56;4982268;28;20050;-68
2023/09/15 09:42:10;;;;;;;7.07;2.30;;;;;;;23.52;100.00;100170.53;4982093;28;20057;-68
2023/09/15 09:44:36;;;;;;;5.10;2.45;;;;;;;23.61;100.00;100173.06;4982026;28;20038;-68
2023/09/15 09:47:02;;;;;;;3.72;2.22;;;;;;;23.74;100.00;100171.59;4982174;28;20030;-68
2023/09/15 09:49:28;;;;;;;4.05;2.10;;;;;;;23.83;100.00;100166.38;4981766;28;20474;-68
2023/09/15 09:51:56;;;;;;;5.63;2.33;;;;;;;23.89;100.00;100161.16;4981956;28;20038;-68
2023/09/15 09:54:24;;;;;;;3.08;2.10;;;;;;;24.04;100.00;100154.41;4998157;28;20058;-68
2023/09/15 09:56:50;;;;;;;4.57;2.20;;;;;;;24.14;100.00;100154.88;4978720;28;20058;-68
2023/09/15 09:59:15;;;;;;;5.03;2.20;;;;;;;24.20;100.00;100147.59;4960740;28;20027;-68
2023/09/15 10:01:41;;;;;;;2.55;1.80;;;;;;;24.31;100.00;100152.13;4981828;28;20501;-68
2023/09/15 10:04:07;;;;;;;6.95;2.28;;;;;;;24.45;99.89;100156.28;4997644;28;20062;-69
2023/09/15 10:06:36;;;;;;;3.78;1.83;;;;;;;24.55;100.00;100149.88;4996101;28;20399;-68
2023/09/15 10:09:08;;;;;;;5.60;2.13;;;;;;;24.62;99.37;100146.25;4965161;28;20483;-68
2023/09/15 10:11:34;;;;;;;3.53;1.90;;;;;;;24.73;95.64;100141.41;4997539;28;20502;-68
2023/09/15 10:14:03;;;;;;;5.38;2.20;;;;;;;24.81;94.85;100131.72;4981366;28;20084;-68
2023/09/15 10:16:32;;;;;;;4.60;2.10;;;;;;;24.90;95.59;100128.50;4997920;28;20030;-68
2023/09/15 10:18:58;;;;;;;4.30;2.15;;;;;;;24.99;94.97;100131.78;4997092;28;20056;-68
2023/09/15 10:21:24;;;;;;;3.28;1.90;;;;;;;25.06;96.33;100128.94;4981398;28;20035;-68
2023/09/15 10:23:58;;;;;;;3.83;1.85;;;;;;;25.11;98.22;100122.88;4977841;28;20095;-69
2023/09/15 10:26:24;;;;;;;4.40;1.90;;;;;;;25.28;91.73;100120.50;4979046;28;20065;-68
2023/09/15 10:28:51;;;;;;;5.63;1.75;;;;;;;25.32;91.38;100119.28;4981320;28;20026;-69
2023/09/15 10:31:17;;;;;;;4.05;1.75;;;;;;;25.38;90.15;100116.84;4998297;28;20061;-68
2023/09/15 10:33:43;;;;;;;5.43;2.25;;;;;;;25.40;90.31;100117.25;4964646;28;20046;-69
2023/09/15 10:36:11;;;;;;;2.72;1.80;;;;;;;25.40;90.59;100111.56;4977803;28;20034;-68
2023/09/15 10:38:36;;;;;;;4.40;1.90;;;;;;;25.46;91.88;100114.81;4991570;28;20048;-68
2023/09/15 10:41:05;;;;;;;5.15;1.92;;;;;;;25.41;88.79;100113.22;4997330;28;20390;-68
2023/09/15 10:43:31;;;;;;;3.10;2.30;;;;;;;25.48;87.74;100104.69;4979481;28;20085;-68
2023/09/15 10:45:58;;;;;;;3.75;2.10;;;;;;;25.57;89.13;100112.78;4980913;28;20084;-68
2023/09/15 10:48:35;;;;;;;3.83;2.28;;;;;;;25.66;89.41;100110.38;4978370;28;20026;-68
2023/09/15 10:51:07;;;;;;;4.43;2.30;;;;;;;25.63;87.72;100097.78;4976754;28;20057;-68
2023/09/15 10:53:45;;;;;;;5.82;2.13;;;;;;;25.74;87.82;100102.63;4980645;28;20035;-68
2023/09/15 10:56:12;;;;;;;2.97;2.05;;;;;;;25.82;87.07;100098.56;4981007;28;20045;-68
2023/09/15 10:58:38;;;;;;;4.13;2.00;;;;;;;25.92;88.88;100099.81;4981650;28;20026;-68
2023/09/15 11:01:03;;;;;;;3.10;1.85;;;;;;;26.01;86.69;100101.00;4962885;28;20101;-68
2023/09/15 11:03:29;;;;;;;8.27;1.95;;;;;;;26.12;84.70;100098.13;4996803;28;20038;-68
2023/09/15 11:05:55;;;;;;;3.03;1.95;;;;;;;26.18;85.46;100095.69;4980580;28;20034;-69
2023/09/15 11:08:22;;;;;;;4.97;2.05;;;;;;;26.23;84.68;100083.88;4980367;28;20031;-68
2023/09/15 11:10:48;;;;;;;4.00;1.92;;;;;;;26.30;84.35;100092.41;4996615;28;20406;-68
2023/09/15 11:13:13;;;;;;;4.65;2.13;;;;;;;26.38;84.11;100087.47;4996861;28;20033;-68